Time;durP1;ratioP1;P1;durP2;ratioP2;P2;SDS_P1;SDS_P2;PMS_P1;PMS_P2;Temp;Humidity;BMP_temperature;BMP_pressure;BME280_temperature;BME280_humidity;BME280_pressure;Samples;Min_cycle;Max_cycle;Signal;HPM_P1;HPM_P2
2023/10/16 00:02:13;;;;;;;3.20;2.53;;;;;;;;;;4979944;28;20232;-76
2023/10/16 00:04:43;;;;;;;4.50;2.67;;;;;;;;;;4981205;28;20580;-76
2023/10/16 00:07:13;;;;;;;3.70;2.40;;;;;;;;;;4987333;28;20053;-76
2023/10/16 00:09:40;;;;;;;5.95;2.67;;;;;;;;;;4978735;28;20519;-77
2023/10/16 00:12:07;;;;;;;4.38;2.47;;;;;;;;;;4979618;28;20054;-75
2023/10/16 00:14:35;;;;;;;2.65;2.28;;;;;;;;;;4963689;28;20095;-76
2023/10/16 00:17:08;;;;;;;3.63;2.13;;;;;;;;;;4978292;28;20049;-76
2023/10/16 00:19:37;;;;;;;3.00;1.90;;;;;;;;;;4962040;28;20141;-76
2023/10/16 00:22:13;;;;;;;5.45;2.10;;;;;;;;;;4956237;28;20058;-76
2023/10/16 00:24:45;;;;;;;2.17;1.90;;;;;;;;;;4992909;28;20133;-76
2023/10/16 00:27:14;;;;;;;3.28;2.28;;;;;;;;;;4977898;28;20131;-76
2023/10/16 00:29:44;;;;;;;4.32;2.30;;;;;;;;;;4977614;28;20069;-76
2023/10/16 00:32:11;;;;;;;2.20;2.00;;;;;;;;;;4982994;28;20054;-76
2023/10/16 00:34:37;;;;;;;5.10;1.90;;;;;;;;;;4983604;28;20073;-76
2023/10/16 00:37:07;;;;;;;2.40;1.90;;;;;;;;;;4982753;28;20197;-77
2023/10/16 00:39:33;;;;;;;3.05;1.73;;;;;;;;;;4981020;28;20086;-77
2023/10/16 00:41:59;;;;;;;2.42;1.90;;;;;;;;;;4980840;28;20058;-77
2023/10/16 00:44:34;;;;;;;2.63;1.90;;;;;;;;;;4982082;28;20066;-76
2023/10/16 00:47:04;;;;;;;6.65;2.22;;;;;;;;;;4990408;28;20050;-77
2023/10/16 00:49:36;;;;;;;2.25;2.03;;;;;;;;;;4983269;28;20472;-76
2023/10/16 00:52:03;;;;;;;3.92;2.20;;;;;;;;;;4981552;28;20046;-76
2023/10/16 00:54:33;;;;;;;4.28;2.03;;;;;;;;;;4981906;28;20053;-76
2023/10/16 00:57:00;;;;;;;2.63;1.98;;;;;;;;;;4981503;28;20050;-76
2023/10/16 00:59:29;;;;;;;2.20;1.90;;;;;;;;;;4981224;28;20566;-77
2023/10/16 01:02:08;;;;;;;2.60;2.08;;;;;;;;;;4971169;28;20054;-77
2023/10/16 01:04:35;;;;;;;3.38;2.45;;;;;;;;;;4997312;28;20064;-76
2023/10/16 01:07:01;;;;;;;2.58;1.98;;;;;;;;;;4981083;28;20062;-77
2023/10/16 01:09:33;;;;;;;2.22;2.00;;;;;;;;;;4997316;28;20054;-76
2023/10/16 01:12:00;;;;;;;2.45;2.00;;;;;;;;;;4980505;28;20061;-76
2023/10/16 01:14:25;;;;;;;2.78;2.05;;;;;;;;;;4982254;28;20120;-77
2023/10/16 01:16:54;;;;;;;3.30;2.20;;;;;;;;;;4981064;28;20077;-76
2023/10/16 01:19:20;;;;;;;4.60;2.17;;;;;;;;;;4982193;28;20157;-77
2023/10/16 01:21:48;;;;;;;15.05;2.17;;;;;;;;;;4964582;28;20173;-74
2023/10/16 01:24:13;;;;;;;20.45;2.13;;;;;;;;;;4963809;28;20488;-75
2023/10/16 01:26:42;;;;;;;11.50;1.80;;;;;;;;;;4980569;28;20056;-74
2023/10/16 01:29:11;;;;;;;7.10;2.00;;;;;;;;;;4995041;28;20563;-75
2023/10/16 01:31:37;;;;;;;8.60;1.90;;;;;;;;;;4995333;28;20141;-75
2023/10/16 01:34:04;;;;;;;11.27;2.22;;;;;;;;;;4978527;28;20108;-74
2023/10/16 01:36:33;;;;;;;2.58;2.17;;;;;;;;;;4949474;28;20116;-75
2023/10/16 01:38:59;;;;;;;2.70;2.22;;;;;;;;;;4980150;28;20053;-76
2023/10/16 01:41:25;;;;;;;3.03;2.47;;;;;;;;;;4980211;28;20086;-76
2023/10/16 01:43:52;;;;;;;3.83;2.78;;;;;;;;;;4980050;28;20050;-76
2023/10/16 01:46:18;;;;;;;3.08;2.35;;;;;;;;;;4980120;28;20050;-76
2023/10/16 01:48:45;;;;;;;2.80;2.30;;;;;;;;;;4980124;28;20050;-74
2023/10/16 01:51:20;;;;;;;2.95;2.25;;;;;;;;;;4979413;28;20165;-76
2023/10/16 01:53:55;;;;;;;2.33;2.13;;;;;;;;;;4979845;28;20050;-77
2023/10/16 01:56:22;;;;;;;4.95;2.10;;;;;;;;;;4980557;28;20145;-76
2023/10/16 01:58:49;;;;;;;4.55;2.10;;;;;;;;;;4996030;28;20109;-76
2023/10/16 02:01:20;;;;;;;2.08;1.88;;;;;;;;;;4978791;28;20053;-77
2023/10/16 02:03:49;;;;;;;3.78;2.38;;;;;;;;;;4982343;28;20046;-77
2023/10/16 02:06:18;;;;;;;2.63;2.28;;;;;;;;;;4979866;28;20038;-77
2023/10/16 02:08:47;;;;;;;2.20;1.70;;;;;;;;;;4980001;28;20073;-77
2023/10/16 02:11:13;;;;;;;4.60;1.42;;;;;;;;;;4980611;28;20108;-77
2023/10/16 02:13:40;;;;;;;11.23;1.40;;;;;;;;;;4981092;28;20038;-76
2023/10/16 02:16:10;;;;;;;1.17;0.95;;;;;;;;;;4963354;28;20050;-77
2023/10/16 02:18:37;;;;;;;2.55;1.80;;;;;;;;;;4979702;28;20093;-77
2023/10/16 02:21:04;;;;;;;20.40;1.83;;;;;;;;;;4980355;28;20133;-76
2023/10/16 02:23:31;;;;;;;1.80;1.70;;;;;;;;;;4979845;28;20049;-77
2023/10/16 02:26:05;;;;;;;1.63;1.50;;;;;;;;;;4979670;28;20054;-77
2023/10/16 02:28:33;;;;;;;6.78;1.80;;;;;;;;;;4970045;28;20072;-76
2023/10/16 02:31:10;;;;;;;1.98;1.75;;;;;;;;;;4980093;28;20155;-76
2023/10/16 02:33:37;;;;;;;4.38;1.80;;;;;;;;;;4954486;28;20085;-77
2023/10/16 02:36:03;;;;;;;2.40;1.70;;;;;;;;;;4964170;28;20104;-76
2023/10/16 02:38:29;;;;;;;2.42;1.83;;;;;;;;;;4978803;28;20035;-77
2023/10/16 02:41:00;;;;;;;9.90;2.00;;;;;;;;;;4979538;28;20038;-77
2023/10/16 02:43:30;;;;;;;5.93;1.63;;;;;;;;;;4979731;28;20056;-73
2023/10/16 02:45:56;;;;;;;3.65;1.90;;;;;;;;;;4994139;28;20046;-73
2023/10/16 02:48:22;;;;;;;1.67;1.23;;;;;;;;;;4980736;28;20046;-74
2023/10/16 02:50:50;;;;;;;4.07;1.80;;;;;;;;;;4979544;28;20102;-74
2023/10/16 02:53:17;;;;;;;1.50;1.40;;;;;;;;;;4962496;28;20046;-74
2023/10/16 02:55:45;;;;;;;3.05;1.30;;;;;;;;;;4994591;28;20061;-73
2023/10/16 02:58:11;;;;;;;5.28;1.42;;;;;;;;;;4979168;28;20062;-74
2023/10/16 03:00:43;;;;;;;1.80;1.70;;;;;;;;;;4979045;28;21118;-74
2023/10/16 03:03:10;;;;;;;;;;;;;;;;;;4979803;28;20447;-75
2023/10/16 03:05:35;;;;;;;2.00;1.80;;;;;;;;;;4980896;28;20017;-74
2023/10/16 03:08:01;;;;;;;1.50;1.40;;;;;;;;;;4983447;28;20133;-74
2023/10/16 03:10:26;;;;;;;4.03;1.70;;;;;;;;;;4963297;28;20046;-74
2023/10/16 03:12:52;;;;;;;2.92;1.70;;;;;;;;;;4995705;28;20050;-74
2023/10/16 03:15:28;;;;;;;1.85;1.67;;;;;;;;;;4978538;28;20066;-74
2023/10/16 03:17:54;;;;;;;2.08;1.85;;;;;;;;;;4977155;28;20070;-75
2023/10/16 03:20:23;;;;;;;2.78;2.38;;;;;;;;;;4962593;28;20582;-74
2023/10/16 03:22:50;;;;;;;2.63;2.38;;;;;;;;;;4989981;28;20046;-74
2023/10/16 03:28:01;;;;;;;3.85;3.10;;;;;;;;;;4978593;28;20045;-75
2023/10/16 03:30:30;;;;;;;2.80;2.60;;;;;;;;;;4977652;28;20077;-74
2023/10/16 03:32:58;;;;;;;6.32;2.53;;;;;;;;;;4993928;28;21050;-74
2023/10/16 03:35:29;;;;;;;2.50;2.30;;;;;;;;;;4978464;28;20057;-73
2023/10/16 03:37:55;;;;;;;2.50;2.20;;;;;;;;;;4973886;28;20243;-74
2023/10/16 03:40:24;;;;;;;2.72;2.53;;;;;;;;;;4977147;28;20042;-73
2023/10/16 03:42:54;;;;;;;2.03;1.88;;;;;;;;;;4980118;28;20069;-73
2023/10/16 03:45:23;;;;;;;3.58;2.50;;;;;;;;;;4978936;28;20089;-74
2023/10/16 03:47:57;;;;;;;4.15;2.47;;;;;;;;;;4978644;28;20112;-73
2023/10/16 03:50:34;;;;;;;2.92;2.33;;;;;;;;;;4977247;28;20077;-73
2023/10/16 03:53:01;;;;;;;3.70;2.83;;;;;;;;;;4978389;28;20169;-77
2023/10/16 03:55:26;;;;;;;3.13;2.72;;;;;;;;;;4978809;28;20096;-76
2023/10/16 03:57:52;;;;;;;6.22;2.45;;;;;;;;;;4981688;28;20105;-78
2023/10/16 04:00:25;;;;;;;2.75;2.50;;;;;;;;;;4979188;28;20118;-77
2023/10/16 04:02:50;;;;;;;3.72;2.60;;;;;;;;;;4977899;28;20158;-76
2023/10/16 04:05:45;;;;;;;3.38;2.97;;;;;;;;;;4978390;28;20092;-76
2023/10/16 04:08:18;;;;;;;3.70;3.08;;;;;;;;;;4961651;28;20454;-76
2023/10/16 04:10:47;;;;;;;3.67;2.83;;;;;;;;;;4979045;28;20046;-76
2023/10/16 04:13:14;;;;;;;4.03;3.38;;;;;;;;;;4977126;28;20057;-76
2023/10/16 04:29:28;;;;;;;3.35;3.03;;;;;;;;;;4979029;28;20690;-71
2023/10/16 04:51:09;;;;;;;4.07;3.10;;;;;;;;;;4971667;28;20105;-75
2023/10/16 04:53:21;;;;;;;4.15;3.55;;;;;;;;;;4971582;28;20161;-74
2023/10/16 05:11:27;;;;;;;3.30;3.00;;;;;;;;;;4976234;28;20081;-74
2023/10/16 05:14:11;;;;;;;2.63;2.40;;;;;;;;;;4977820;28;20137;-74
2023/10/16 05:16:47;;;;;;;3.97;3.40;;;;;;;;;;4979716;28;20492;-75
2023/10/16 06:14:09;;;;;;;5.13;3.42;;;;;;;;;;4980976;28;20046;-74
2023/10/16 06:16:47;;;;;;;4.43;3.33;;;;;;;;;;4980643;28;20041;-74
2023/10/16 06:19:17;;;;;;;9.18;3.55;;;;;;;;;;4980102;28;20293;-73
2023/10/16 06:21:49;;;;;;;6.70;3.22;;;;;;;;;;4980065;28;20149;-74
2023/10/16 06:24:26;;;;;;;13.75;3.20;;;;;;;;;;4981253;28;20053;-75
2023/10/16 06:26:52;;;;;;;34.65;3.75;;;;;;;;;;4967457;28;20537;-76
2023/10/16 06:29:18;;;;;;;7.40;2.47;;;;;;;;;;4983087;28;20051;-76
2023/10/16 06:31:53;;;;;;;6.28;2.50;;;;;;;;;;4998655;28;20038;-77
2023/10/16 06:34:23;;;;;;;7.20;2.60;;;;;;;;;;4982441;28;20057;-76
2023/10/16 06:36:51;;;;;;;3.22;2.42;;;;;;;;;;4974772;28;20048;-76
2023/10/16 06:39:28;;;;;;;6.13;2.42;;;;;;;;;;4981696;28;20030;-76
2023/10/16 06:41:57;;;;;;;15.70;2.70;;;;;;;;;;4983571;28;20962;-77
2023/10/16 06:44:28;;;;;;;8.05;2.50;;;;;;;;;;4980975;28;20046;-77
2023/10/16 06:46:58;;;;;;;2.45;2.25;;;;;;;;;;4980913;28;20054;-77
2023/10/16 06:49:35;;;;;;;3.47;2.22;;;;;;;;;;4979195;28;20046;-77
2023/10/16 06:52:04;;;;;;;2.58;2.00;;;;;;;;;;4978779;28;20133;-77
2023/10/16 06:54:37;;;;;;;8.25;1.90;;;;;;;;;;4979573;28;20054;-76
2023/10/16 06:57:14;;;;;;;27.77;2.60;;;;;;;;;;4979389;28;20042;-76
2023/10/16 06:59:41;;;;;;;7.53;2.20;;;;;;;;;;4979361;28;20484;-76
2023/10/16 07:02:19;;;;;;;5.75;2.20;;;;;;;;;;4959312;28;20046;-76
2023/10/16 07:04:45;;;;;;;30.55;2.42;;;;;;;;;;4980640;28;20042;-76
2023/10/16 07:07:18;;;;;;;53.92;3.13;;;;;;;;;;4979399;28;20042;-77
2023/10/16 07:09:47;;;;;;;51.08;2.65;;;;;;;;;;4978475;28;20038;-77
2023/10/16 07:12:17;;;;;;;21.80;2.17;;;;;;;;;;4964233;28;20046;-74
2023/10/16 07:14:55;;;;;;;79.72;3.67;;;;;;;;;;4979937;28;20768;-76
2023/10/16 07:17:24;;;;;;;55.90;3.67;;;;;;;;;;4962646;28;20058;-75
2023/10/16 07:19:51;;;;;;;20.60;3.00;;;;;;;;;;4956115;28;20104;-75
2023/10/16 07:22:16;;;;;;;32.95;3.65;;;;;;;;;;4980429;28;20411;-76
2023/10/16 07:24:42;;;;;;;15.30;3.00;;;;;;;;;;4991866;28;20070;-74
2023/10/16 07:27:12;;;;;;;10.18;3.22;;;;;;;;;;4980566;28;20045;-74
2023/10/16 07:29:43;;;;;;;19.95;3.28;;;;;;;;;;4994624;28;20752;-74
2023/10/16 07:32:09;;;;;;;20.83;3.42;;;;;;;;;;4961836;28;20744;-74
2023/10/16 07:34:36;;;;;;;21.55;3.53;;;;;;;;;;4978709;28;20054;-74
2023/10/16 07:37:04;;;;;;;2.95;2.70;;;;;;;;;;4962739;28;20070;-74
2023/10/16 07:39:30;;;;;;;13.57;3.20;;;;;;;;;;4978554;28;20042;-74
2023/10/16 07:41:55;;;;;;;22.73;3.78;;;;;;;;;;4980064;28;20050;-74
2023/10/16 07:44:20;;;;;;;14.00;3.15;;;;;;;;;;4980995;28;20134;-74
2023/10/16 07:46:47;;;;;;;14.27;3.33;;;;;;;;;;4979537;28;20058;-74
2023/10/16 07:49:15;;;;;;;8.90;3.17;;;;;;;;;;4978847;28;20419;-75
2023/10/16 07:51:45;;;;;;;3.80;3.47;;;;;;;;;;4980240;28;20054;-74
2023/10/16 07:54:11;;;;;;;4.25;3.38;;;;;;;;;;4979346;28;20167;-74
2023/10/16 07:56:38;;;;;;;3.20;2.90;;;;;;;;;;4979314;28;20068;-75
2023/10/16 08:02:50;;;;;;;3.40;3.08;;;;;;;;;;4983155;28;20122;-75
2023/10/16 08:05:16;;;;;;;2.65;2.38;;;;;;;;;;4976256;28;20125;-76
2023/10/16 08:07:48;;;;;;;3.58;2.45;;;;;;;;;;4960438;28;20403;-78
2023/10/16 08:13:11;;;;;;;2.40;1.98;;;;;;;;;;4960055;28;20496;-74
2023/10/16 08:15:37;;;;;;;3.03;2.00;;;;;;;;;;4957420;28;20046;-74
2023/10/16 08:18:07;;;;;;;2.20;2.00;;;;;;;;;;4959454;28;20046;-76
2023/10/16 08:20:49;;;;;;;4.00;2.55;;;;;;;;;;4957301;28;20078;-77
2023/10/16 08:23:15;;;;;;;4.22;2.33;;;;;;;;;;4958072;28;20046;-78
2023/10/16 08:25:40;;;;;;;2.40;2.13;;;;;;;;;;4939856;28;20041;-78
2023/10/16 08:28:20;;;;;;;2.63;2.42;;;;;;;;;;4956983;28;20046;-77
2023/10/16 08:30:49;;;;;;;2.95;2.30;;;;;;;;;;4959669;28;20039;-76
2023/10/16 08:33:19;;;;;;;5.65;2.75;;;;;;;;;;4966898;28;20856;-76
2023/10/16 08:35:45;;;;;;;4.40;2.42;;;;;;;;;;4959740;28;20042;-75
2023/10/16 08:38:17;;;;;;;10.77;3.47;;;;;;;;;;4958969;28;20065;-74
2023/10/16 08:40:44;;;;;;;4.97;3.00;;;;;;;;;;4947741;28;20053;-74
2023/10/16 08:43:16;;;;;;;5.70;3.03;;;;;;;;;;4959426;28;20067;-74
2023/10/16 08:45:49;;;;;;;6.72;2.83;;;;;;;;;;4958460;28;20066;-72
2023/10/16 08:48:18;;;;;;;3.22;2.45;;;;;;;;;;4971486;28;20058;-73
2023/10/16 08:50:52;;;;;;;5.10;2.95;;;;;;;;;;4959636;28;20061;-74
2023/10/16 08:53:30;;;;;;;3.97;2.67;;;;;;;;;;4978119;28;20565;-73
2023/10/16 08:56:07;;;;;;;4.18;2.97;;;;;;;;;;4961882;28;20047;-75
2023/10/16 08:58:44;;;;;;;3.63;2.38;;;;;;;;;;4961581;28;20133;-74
2023/10/16 09:01:12;;;;;;;4.28;2.55;;;;;;;;;;4963366;28;20052;-77
2023/10/16 09:03:46;;;;;;;6.10;2.60;;;;;;;;;;4962637;28;20085;-76
2023/10/16 09:06:22;;;;;;;5.47;2.85;;;;;;;;;;4963237;28;20142;-76
2023/10/16 09:08:49;;;;;;;5.03;2.47;;;;;;;;;;4966263;28;20050;-77
2023/10/16 09:11:16;;;;;;;2.55;2.20;;;;;;;;;;4945545;28;20042;-76
2023/10/16 09:13:45;;;;;;;3.08;2.33;;;;;;;;;;4964113;28;20131;-76
2023/10/16 09:16:15;;;;;;;3.92;2.47;;;;;;;;;;4958059;28;20047;-76
2023/10/16 09:18:41;;;;;;;3.28;2.13;;;;;;;;;;4961137;28;20110;-76
2023/10/16 09:21:13;;;;;;;3.10;2.13;;;;;;;;;;4961572;28;20134;-76
2023/10/16 09:23:51;;;;;;;4.97;2.25;;;;;;;;;;4960638;28;20047;-73
2023/10/16 09:26:24;;;;;;;3.00;2.08;;;;;;;;;;4974893;28;20065;-73
2023/10/16 09:28:53;;;;;;;4.28;1.85;;;;;;;;;;4977530;28;20050;-77
2023/10/16 09:31:19;;;;;;;2.90;2.00;;;;;;;;;;4961280;28;20069;-77
2023/10/16 09:33:48;;;;;;;6.18;1.80;;;;;;;;;;4961065;28;20058;-72
2023/10/16 09:36:18;;;;;;;2.97;1.65;;;;;;;;;;4961775;28;20054;-75
2023/10/16 09:38:56;;;;;;;5.00;1.75;;;;;;;;;;4961757;28;20125;-77
2023/10/16 09:44:06;;;;;;;3.60;1.75;;;;;;;;;;4959929;28;20065;-74
2023/10/16 09:49:13;;;;;;;5.53;2.17;;;;;;;;;;4961700;28;20057;-75
2023/10/16 09:51:44;;;;;;;3.78;1.88;;;;;;;;;;4961645;28;20779;-74
2023/10/16 09:54:11;;;;;;;2.55;1.80;;;;;;;;;;4959349;28;20050;-73
2023/10/16 09:56:39;;;;;;;2.53;1.75;;;;;;;;;;4961344;28;20105;-75
2023/10/16 09:59:12;;;;;;;3.85;2.00;;;;;;;;;;4961819;28;20641;-77
2023/10/16 10:01:42;;;;;;;1.73;1.60;;;;;;;;;;4958344;28;20515;-74
2023/10/16 10:04:11;;;;;;;3.75;1.98;;;;;;;;;;4951086;28;20074;-74
2023/10/16 10:06:39;;;;;;;2.75;1.75;;;;;;;;;;4961544;28;20051;-79
2023/10/16 10:14:39;;;;;;;1.50;1.40;;;;;;;;;;4959262;28;20050;-79
2023/10/16 10:17:09;;;;;;;2.38;1.83;;;;;;;;;;4978523;28;20043;-77
2023/10/16 10:19:39;;;;;;;2.35;1.95;;;;;;;;;;4963468;28;20039;-81
2023/10/16 10:22:12;;;;;;;1.60;1.50;;;;;;;;;;4965260;28;20054;-79
2023/10/16 10:24:38;;;;;;;2.65;1.63;;;;;;;;;;4963731;28;20397;-78
2023/10/16 10:27:05;;;;;;;2.38;1.95;;;;;;;;;;4963368;28;20046;-79
2023/10/16 10:29:30;;;;;;;1.80;1.63;;;;;;;;;;4965333;28;20460;-81
2023/10/16 10:32:06;;;;;;;4.93;1.67;;;;;;;;;;4968908;28;20094;-79
2023/10/16 10:34:32;;;;;;;1.45;1.30;;;;;;;;;;4971103;28;20051;-79
2023/10/16 10:37:00;;;;;;;2.65;1.77;;;;;;;;;;4968077;28;20047;-79
2023/10/16 10:42:10;;;;;;;1.00;1.00;;;;;;;;;;4959745;28;20595;-78
2023/10/16 10:44:39;;;;;;;1.40;1.30;;;;;;;;;;4959719;28;20047;-75
2023/10/16 10:47:33;;;;;;;1.45;1.35;;;;;;;;;;4960578;28;20097;-75
2023/10/16 10:50:00;;;;;;;2.40;1.83;;;;;;;;;;4959254;28;21037;-79
2023/10/16 10:52:32;;;;;;;2.53;1.60;;;;;;;;;;4959324;28;20046;-77
2023/10/16 10:54:59;;;;;;;3.05;1.40;;;;;;;;;;4958584;28;20505;-78
2023/10/16 10:57:26;;;;;;;2.75;1.40;;;;;;;;;;4959614;28;20050;-78
2023/10/16 11:05:01;;;;;;;1.90;1.50;;;;;;;;;;4960612;28;20043;-75
2023/10/16 11:07:39;;;;;;;2.97;1.40;;;;;;;;;;4959212;28;20816;-76
2023/10/16 11:10:05;;;;;;;3.47;1.23;;;;;;;;;;4974105;28;20070;-77
2023/10/16 11:12:32;;;;;;;2.22;1.23;;;;;;;;;;4959243;28;20053;-76
2023/10/16 11:14:57;;;;;;;2.30;1.35;;;;;;;;;;4957985;28;20058;-74
2023/10/16 11:17:30;;;;;;;2.05;1.00;;;;;;;;;;4959904;28;20047;-74
2023/10/16 11:19:56;;;;;;;1.25;0.82;;;;;;;;;;4958704;28;20542;-75
2023/10/16 11:22:27;;;;;;;2.33;1.23;;;;;;;;;;4959514;28;20070;-77
2023/10/16 11:24:53;;;;;;;1.77;1.10;;;;;;;;;;4959628;28;20149;-75
2023/10/16 11:27:19;;;;;;;1.45;1.30;;;;;;;;;;4960085;28;20104;-77
2023/10/16 11:29:46;;;;;;;4.40;1.35;;;;;;;;;;4958337;28;20520;-76
2023/10/16 11:32:15;;;;;;;1.23;1.13;;;;;;;;;;4959306;28;20105;-75
2023/10/16 11:34:51;;;;;;;1.88;1.33;;;;;;;;;;4954487;28;20043;-76
2023/10/16 11:37:23;;;;;;;2.10;1.40;;;;;;;;;;4950351;28;20061;-77
2023/10/16 11:39:48;;;;;;;2.55;1.20;;;;;;;;;;4972147;28;20079;-75
2023/10/16 11:42:14;;;;;;;2.42;1.42;;;;;;;;;;4958471;28;20047;-77
2023/10/16 11:44:40;;;;;;;2.63;1.50;;;;;;;;;;4934782;28;20054;-79
2023/10/16 11:47:08;;;;;;;1.70;1.40;;;;;;;;;;4960136;28;20049;-75
2023/10/16 11:49:35;;;;;;;7.25;1.60;;;;;;;;;;4959950;28;20051;-74
2023/10/16 11:52:19;;;;;;;1.73;1.38;;;;;;;;;;4954337;28;20053;-78
2023/10/16 11:54:45;;;;;;;4.63;1.80;;;;;;;;;;4958092;28;20093;-73
2023/10/16 11:57:13;;;;;;;2.53;1.58;;;;;;;;;;4957635;28;20100;-73
2023/10/16 11:59:38;;;;;;;4.63;1.58;;;;;;;;;;4958264;28;20034;-74
2023/10/16 12:02:14;;;;;;;2.05;1.70;;;;;;;;;;4958251;28;20120;-74
2023/10/16 12:04:41;;;;;;;3.10;1.23;;;;;;;;;;4958838;28;20047;-75
2023/10/16 12:07:12;;;;;;;5.10;1.50;;;;;;;;;;4957448;28;20046;-76
2023/10/16 12:09:42;;;;;;;2.58;2.08;;;;;;;;;;4957045;28;20059;-74
2023/10/16 12:12:08;;;;;;;2.13;1.42;;;;;;;;;;4956170;28;20062;-74
2023/10/16 12:14:37;;;;;;;1.80;1.48;;;;;;;;;;4957724;28;20051;-77
2023/10/16 12:17:06;;;;;;;4.00;1.45;;;;;;;;;;4957011;28;20150;-74
2023/10/16 12:19:33;;;;;;;1.83;1.20;;;;;;;;;;4973042;28;20063;-77
2023/10/16 12:22:00;;;;;;;2.53;1.50;;;;;;;;;;4958286;28;20106;-75
2023/10/16 12:24:28;;;;;;;4.00;1.55;;;;;;;;;;4957411;28;20055;-76
2023/10/16 12:26:54;;;;;;;3.42;1.40;;;;;;;;;;4956400;28;20113;-75
2023/10/16 12:29:19;;;;;;;1.60;1.00;;;;;;;;;;4957012;28;20043;-74
2023/10/16 12:31:44;;;;;;;2.83;1.48;;;;;;;;;;4955513;28;20761;-74
2023/10/16 12:34:11;;;;;;;1.20;1.10;;;;;;;;;;4957569;28;20126;-75
2023/10/16 12:36:42;;;;;;;4.20;1.00;;;;;;;;;;4955384;28;20054;-73
2023/10/16 12:39:17;;;;;;;2.03;0.70;;;;;;;;;;4955373;28;20038;-74
2023/10/16 12:41:43;;;;;;;2.40;1.15;;;;;;;;;;4956109;28;20982;-73
2023/10/16 12:44:09;;;;;;;1.60;1.00;;;;;;;;;;4957839;28;20077;-74
2023/10/16 12:46:38;;;;;;;0.90;0.82;;;;;;;;;;4958564;28;20055;-76
2023/10/16 12:49:07;;;;;;;2.08;0.95;;;;;;;;;;4957872;28;20100;-73
2023/10/16 12:51:36;;;;;;;1.90;1.20;;;;;;;;;;4957106;28;20198;-75
2023/10/16 12:54:06;;;;;;;1.63;1.40;;;;;;;;;;4958820;28;20050;-74
2023/10/16 12:56:33;;;;;;;2.55;1.35;;;;;;;;;;4958934;28;20050;-77
2023/10/16 12:58:59;;;;;;;2.75;1.60;;;;;;;;;;4957369;28;20038;-75
2023/10/16 13:01:25;;;;;;;2.35;1.83;;;;;;;;;;4956651;28;20397;-74
2023/10/16 13:03:51;;;;;;;1.50;1.40;;;;;;;;;;4957304;28;20109;-75
2023/10/16 13:06:16;;;;;;;3.70;1.70;;;;;;;;;;4957897;28;20058;-74
2023/10/16 13:08:42;;;;;;;3.67;1.98;;;;;;;;;;4958515;28;20055;-74
2023/10/16 13:11:08;;;;;;;3.50;1.90;;;;;;;;;;4958862;28;20070;-78
2023/10/16 13:13:34;;;;;;;2.10;1.90;;;;;;;;;;4941330;28;20061;-75
2023/10/16 13:16:00;;;;;;;3.47;2.53;;;;;;;;;;4957144;28;20043;-75
2023/10/16 13:18:29;;;;;;;4.88;2.47;;;;;;;;;;4958299;28;20049;-76
2023/10/16 13:21:12;;;;;;;3.42;2.42;;;;;;;;;;4956549;28;20038;-74
2023/10/16 13:23:39;;;;;;;3.67;2.30;;;;;;;;;;4957188;28;20043;-76
2023/10/16 13:26:07;;;;;;;2.47;2.28;;;;;;;;;;4952117;28;20110;-75
2023/10/16 13:28:36;;;;;;;4.75;2.55;;;;;;;;;;4957801;28;20054;-78
2023/10/16 13:31:03;;;;;;;2.50;2.30;;;;;;;;;;4946775;28;20055;-76
2023/10/16 13:33:32;;;;;;;5.93;3.13;;;;;;;;;;4958659;28;20058;-75
2023/10/16 13:35:59;;;;;;;6.32;2.92;;;;;;;;;;4957510;28;21048;-79
2023/10/16 13:38:26;;;;;;;6.22;3.50;;;;;;;;;;4961764;28;20174;-75
2023/10/16 13:40:53;;;;;;;3.58;2.78;;;;;;;;;;4961003;28;20047;-74
2023/10/16 13:43:18;;;;;;;2.78;2.47;;;;;;;;;;4961780;28;20046;-77
2023/10/16 13:45:44;;;;;;;4.88;3.15;;;;;;;;;;4956052;28;20050;-74
2023/10/16 13:48:09;;;;;;;3.75;2.55;;;;;;;;;;4960353;28;20078;-73
2023/10/16 13:50:36;;;;;;;2.50;2.30;;;;;;;;;;4961082;28;20058;-76
2023/10/16 13:53:04;;;;;;;3.33;2.88;;;;;;;;;;4961202;28;20133;-75
2023/10/16 13:55:30;;;;;;;7.82;2.63;;;;;;;;;;4959082;28;20560;-77
2023/10/16 13:57:56;;;;;;;3.22;2.90;;;;;;;;;;4959404;28;20134;-73
2023/10/16 14:00:31;;;;;;;3.40;3.10;;;;;;;;;;4959909;28;20054;-72
2023/10/16 14:03:16;;;;;;;2.55;2.35;;;;;;;;;;4960472;28;20459;-73
2023/10/16 14:05:52;;;;;;;5.05;2.65;;;;;;;;;;4958219;28;20062;-76
2023/10/16 14:08:26;;;;;;;3.13;2.50;;;;;;;;;;4981585;28;20065;-75
2023/10/16 14:10:52;;;;;;;4.20;2.30;;;;;;;;;;4978643;28;20046;-76
2023/10/16 14:13:19;;;;;;;2.60;2.40;;;;;;;;;;4980661;28;20104;-75
2023/10/16 14:15:46;;;;;;;2.50;2.00;;;;;;;;;;4976697;28;20038;-78
2023/10/16 14:18:20;;;;;;;3.33;2.25;;;;;;;;;;4978406;28;20476;-74
2023/10/16 14:20:47;;;;;;;2.30;2.00;;;;;;;;;;4979730;28;20729;-77
2023/10/16 14:23:13;;;;;;;1.75;1.65;;;;;;;;;;4980807;28;20086;-75
2023/10/16 14:25:57;;;;;;;2.45;2.13;;;;;;;;;;4976740;28;20142;-77
2023/10/16 14:28:39;;;;;;;1.55;1.45;;;;;;;;;;4970868;28;20046;-76
2023/10/16 14:31:08;;;;;;;1.38;1.27;;;;;;;;;;4979748;28;20129;-74
2023/10/16 14:33:35;;;;;;;2.22;1.40;;;;;;;;;;4979938;28;20034;-74
2023/10/16 14:36:04;;;;;;;3.40;1.90;;;;;;;;;;4977135;28;20996;-74
2023/10/16 14:38:30;;;;;;;1.83;1.70;;;;;;;;;;4979711;28;20053;-73
2023/10/16 14:40:55;;;;;;;1.50;1.40;;;;;;;;;;4978687;28;20050;-73
2023/10/16 14:43:24;;;;;;;1.73;1.10;;;;;;;;;;4979695;28;20090;-74
2023/10/16 14:45:53;;;;;;;2.83;1.80;;;;;;;;;;4978121;28;20046;-74
2023/10/16 14:48:22;;;;;;;1.60;1.50;;;;;;;;;;4977884;28;20513;-76
2023/10/16 14:50:50;;;;;;;2.33;1.52;;;;;;;;;;4976397;28;20692;-74
2023/10/16 14:53:19;;;;;;;3.92;1.83;;;;;;;;;;4979634;28;20047;-77
2023/10/16 14:55:48;;;;;;;1.95;1.70;;;;;;;;;;4978810;28;20698;-77
2023/10/16 14:58:14;;;;;;;3.15;1.85;;;;;;;;;;4978753;28;20057;-75
2023/10/16 15:00:45;;;;;;;1.75;1.60;;;;;;;;;;4978082;28;20034;-76
2023/10/16 15:03:13;;;;;;;2.50;1.70;;;;;;;;;;4978934;28;20050;-74
2023/10/16 15:05:40;;;;;;;2.78;1.70;;;;;;;;;;4976816;28;20038;-79
2023/10/16 15:08:07;;;;;;;4.07;2.30;;;;;;;;;;4976057;28;21690;-76
2023/10/16 15:10:33;;;;;;;4.82;2.10;;;;;;;;;;4972154;28;20085;-78
2023/10/16 15:12:59;;;;;;;4.05;2.30;;;;;;;;;;4977183;28;20125;-75
2023/10/16 15:15:25;;;;;;;3.58;2.33;;;;;;;;;;4977619;28;20078;-76
2023/10/16 15:17:51;;;;;;;3.17;2.88;;;;;;;;;;4977099;28;20452;-74
2023/10/16 15:20:16;;;;;;;4.32;3.03;;;;;;;;;;4976833;28;20065;-76
2023/10/16 15:22:44;;;;;;;4.97;2.50;;;;;;;;;;4978482;28;20050;-75
2023/10/16 15:25:13;;;;;;;2.97;2.78;;;;;;;;;;4978780;28;20042;-74
2023/10/16 15:27:43;;;;;;;4.93;2.72;;;;;;;;;;4977794;28;20046;-74
2023/10/16 15:30:12;;;;;;;3.45;2.70;;;;;;;;;;4976397;28;20058;-77
2023/10/16 15:32:43;;;;;;;5.03;3.42;;;;;;;;;;4979324;28;20112;-75
2023/10/16 15:35:10;;;;;;;3.83;3.33;;;;;;;;;;4977859;28;20042;-73
2023/10/16 15:37:40;;;;;;;3.45;2.92;;;;;;;;;;4978170;28;20168;-73
2023/10/16 15:40:07;;;;;;;4.07;2.80;;;;;;;;;;4976310;28;22080;-75
2023/10/16 15:42:33;;;;;;;3.85;2.67;;;;;;;;;;4979061;28;20061;-73
2023/10/16 15:45:00;;;;;;;5.28;3.13;;;;;;;;;;4977624;28;20053;-73
2023/10/16 15:47:26;;;;;;;7.57;3.47;;;;;;;;;;4977107;28;20042;-76
2023/10/16 15:49:52;;;;;;;5.43;3.25;;;;;;;;;;4992322;28;20582;-74
2023/10/16 15:52:18;;;;;;;3.78;3.38;;;;;;;;;;4977287;28;20064;-73
2023/10/16 15:54:44;;;;;;;4.68;3.53;;;;;;;;;;4977044;28;20050;-73
2023/10/16 15:57:11;;;;;;;4.47;3.63;;;;;;;;;;4976843;28;20042;-74
2023/10/16 15:59:37;;;;;;;7.75;5.10;;;;;;;;;;4977762;28;21075;-74
2023/10/16 16:02:05;;;;;;;4.13;3.65;;;;;;;;;;4976071;28;20046;-74
2023/10/16 16:04:30;;;;;;;8.25;5.57;;;;;;;;;;4993814;28;20574;-74
2023/10/16 16:07:01;;;;;;;5.35;4.10;;;;;;;;;;4977794;28;20054;-73
2023/10/16 16:09:29;;;;;;;6.10;4.32;;;;;;;;;;4960290;28;20061;-73
2023/10/16 16:11:56;;;;;;;5.72;3.90;;;;;;;;;;4978236;28;20646;-72
2023/10/16 16:14:21;;;;;;;6.68;3.53;;;;;;;;;;4979382;28;20042;-73
2023/10/16 16:16:50;;;;;;;4.93;3.78;;;;;;;;;;4992534;28;20062;-77
2023/10/16 16:19:15;;;;;;;5.53;3.83;;;;;;;;;;4977819;28;20562;-74
2023/10/16 16:21:41;;;;;;;4.93;4.05;;;;;;;;;;4977781;28;20050;-75
2023/10/16 16:24:07;;;;;;;7.13;3.50;;;;;;;;;;4976292;28;20078;-77
2023/10/16 16:26:34;;;;;;;4.47;3.85;;;;;;;;;;4976103;28;20069;-74
2023/10/16 16:28:59;;;;;;;5.30;3.60;;;;;;;;;;4976582;28;20561;-74
2023/10/16 16:31:25;;;;;;;5.00;3.78;;;;;;;;;;4972962;28;20105;-75
2023/10/16 16:33:53;;;;;;;5.07;3.70;;;;;;;;;;4973901;28;20045;-73
2023/10/16 16:36:19;;;;;;;4.80;3.67;;;;;;;;;;4973837;28;20077;-75
2023/10/16 16:38:44;;;;;;;6.35;4.00;;;;;;;;;;4973773;28;20618;-76
2023/10/16 16:41:12;;;;;;;5.22;4.03;;;;;;;;;;4974332;28;20053;-72
2023/10/16 16:43:39;;;;;;;9.35;4.65;;;;;;;;;;4975620;28;20612;-75
2023/10/16 16:46:04;;;;;;;5.20;4.32;;;;;;;;;;4971737;28;20161;-75
2023/10/16 16:48:30;;;;;;;5.88;4.65;;;;;;;;;;4974819;28;20050;-77
2023/10/16 16:50:59;;;;;;;6.03;4.07;;;;;;;;;;4974252;28;20054;-73
2023/10/16 16:53:25;;;;;;;9.57;5.90;;;;;;;;;;4974777;28;20042;-73
2023/10/16 16:55:51;;;;;;;9.70;6.47;;;;;;;;;;4973529;28;20463;-73
2023/10/16 16:58:17;;;;;;;7.18;5.00;;;;;;;;;;4974768;28;20108;-73
2023/10/16 17:00:42;;;;;;;8.13;4.90;;;;;;;;;;4991062;28;20042;-76
2023/10/16 17:03:07;;;;;;;9.07;4.88;;;;;;;;;;4972857;28;20069;-74
2023/10/16 17:05:35;;;;;;;6.65;5.00;;;;;;;;;;4974799;28;20442;-77